createdAt,value
2023-11-30T00:00:14.996Z,41.53
2023-11-30T00:02:38.083Z,39.22
2023-11-30T00:05:00.827Z,43.75
2023-11-30T00:07:23.423Z,43.55
2023-11-30T00:09:46.182Z,44.73
2023-11-30T00:12:09.993Z,44.70
2023-11-30T00:14:35.535Z,44.42
2023-11-30T00:16:58.574Z,43.35
2023-11-30T00:19:21.327Z,41.05
2023-11-30T00:21:44.000Z,39.50
2023-11-30T00:24:13.212Z,39.05
2023-11-30T00:26:36.241Z,41.35
2023-11-30T00:28:59.137Z,42.33
2023-11-30T00:31:21.907Z,45.50
2023-11-30T00:33:44.641Z,43.37
2023-11-30T00:36:15.218Z,46.08
2023-11-30T00:38:38.345Z,45.80
2023-11-30T00:41:00.986Z,44.60
2023-11-30T00:43:23.962Z,45.75
2023-11-30T00:45:55.252Z,41.60
2023-11-30T00:48:23.688Z,46.13
2023-11-30T00:50:46.528Z,42.47
2023-11-30T00:53:09.252Z,34.85
2023-11-30T00:55:32.012Z,32.13
2023-11-30T00:57:54.841Z,35.37
2023-11-30T01:00:18.868Z,34.53
2023-11-30T01:02:42.054Z,31.55
2023-11-30T01:05:05.233Z,32.30
2023-11-30T01:07:28.214Z,32.85
2023-11-30T01:09:50.829Z,30.40
2023-11-30T01:12:15.207Z,29.52
2023-11-30T01:14:41.523Z,32.03
2023-11-30T01:17:04.390Z,33.28
2023-11-30T01:19:27.058Z,31.73
2023-11-30T01:21:50.079Z,30.33
2023-11-30T01:24:13.841Z,29.30
2023-11-30T01:26:36.951Z,31.83
2023-11-30T01:28:59.685Z,27.45
2023-11-30T01:31:22.327Z,30.25
2023-11-30T01:33:46.392Z,30.97
2023-11-30T01:36:14.912Z,30.25
2023-11-30T01:38:38.033Z,29.40
2023-11-30T01:41:00.770Z,26.35
2023-11-30T01:43:23.945Z,29.60
2023-11-30T01:45:47.551Z,27.93
2023-11-30T01:48:12.892Z,29.92
2023-11-30T01:50:36.145Z,27.23
2023-11-30T01:53:00.025Z,29.58
2023-11-30T01:55:22.890Z,31.90
2023-11-30T01:57:45.790Z,28.00
2023-11-30T02:00:18.340Z,28.48
2023-11-30T02:02:44.783Z,28.98
2023-11-30T02:05:07.938Z,28.90
2023-11-30T02:07:30.580Z,32.40
2023-11-30T02:09:53.433Z,30.97
2023-11-30T02:12:16.645Z,28.73
2023-11-30T02:14:39.618Z,31.63
2023-11-30T02:17:04.397Z,30.88
2023-11-30T02:19:27.315Z,29.00
2023-11-30T02:21:51.562Z,28.07
2023-11-30T02:24:15.939Z,26.13
2023-11-30T02:26:39.085Z,26.73
2023-11-30T02:29:01.727Z,23.08
2023-11-30T02:31:24.443Z,24.42
2023-11-30T02:33:47.303Z,22.70
2023-11-30T02:36:13.321Z,24.52
2023-11-30T02:38:36.694Z,22.80
2023-11-30T02:40:59.490Z,22.85
2023-11-30T02:43:23.474Z,18.85
2023-11-30T02:45:46.421Z,20.73
2023-11-30T02:48:16.070Z,19.48
2023-11-30T02:50:39.181Z,22.52
2023-11-30T02:53:02.080Z,18.65
2023-11-30T02:55:24.841Z,22.85
2023-11-30T02:57:47.699Z,18.40
2023-11-30T03:00:15.888Z,20.58
2023-11-30T03:02:39.181Z,20.55
2023-11-30T03:05:01.906Z,19.75
2023-11-30T03:07:24.983Z,21.98
2023-11-30T03:09:47.743Z,20.00
2023-11-30T03:12:11.989Z,20.30
2023-11-30T03:14:35.178Z,20.88
2023-11-30T03:16:58.358Z,21.17
2023-11-30T03:19:21.111Z,20.42
2023-11-30T03:21:43.792Z,20.83
2023-11-30T03:24:13.342Z,21.13
2023-11-30T03:26:36.457Z,18.52
2023-11-30T03:28:59.221Z,21.50
2023-11-30T03:31:22.223Z,18.55
2023-11-30T03:33:44.972Z,19.93
2023-11-30T03:36:29.637Z,20.42
2023-11-30T03:38:55.273Z,19.40
2023-11-30T03:41:18.058Z,18.65
2023-11-30T03:43:40.705Z,19.20
2023-11-30T03:46:03.427Z,21.37
2023-11-30T03:48:27.077Z,20.02
2023-11-30T03:50:49.823Z,22.02
2023-11-30T03:53:12.669Z,19.50
2023-11-30T03:55:35.319Z,20.27
2023-11-30T03:57:58.009Z,21.73
2023-11-30T04:00:21.669Z,21.67
2023-11-30T04:02:44.751Z,22.90
2023-11-30T04:05:08.760Z,22.27
2023-11-30T04:07:31.522Z,25.33
2023-11-30T04:09:54.195Z,23.00
2023-11-30T04:12:18.267Z,22.50
2023-11-30T04:14:41.292Z,24.17
2023-11-30T04:17:04.898Z,24.15
2023-11-30T04:19:27.812Z,24.45
2023-11-30T04:21:50.548Z,22.60
2023-11-30T04:24:17.422Z,22.67
2023-11-30T04:26:40.693Z,24.25
2023-11-30T04:29:03.403Z,21.92
2023-11-30T04:31:26.582Z,20.40
2023-11-30T04:33:49.365Z,24.37
2023-11-30T04:36:15.144Z,24.73
2023-11-30T04:38:38.093Z,22.50
2023-11-30T04:41:00.811Z,20.55
2023-11-30T04:43:26.731Z,22.92
2023-11-30T04:45:49.822Z,19.97
2023-11-30T04:48:15.009Z,20.75
2023-11-30T04:50:38.022Z,24.15
2023-11-30T04:53:00.697Z,23.70
2023-11-30T04:55:23.690Z,25.73
2023-11-30T04:57:46.889Z,20.47
2023-11-30T05:00:16.999Z,21.38
2023-11-30T05:02:53.791Z,25.15
2023-11-30T05:05:16.653Z,23.88
2023-11-30T05:07:39.231Z,24.02
2023-11-30T05:10:02.016Z,24.67
2023-11-30T05:12:24.990Z,21.75
2023-11-30T05:14:47.614Z,23.42
2023-11-30T05:17:10.295Z,23.20
2023-11-30T05:19:32.965Z,24.08
2023-11-30T05:21:55.779Z,23.47
2023-11-30T05:24:19.139Z,24.70
2023-11-30T05:26:42.398Z,23.48
2023-11-30T05:29:05.105Z,23.13
2023-11-30T05:31:27.958Z,24.17
2023-11-30T05:33:51.439Z,26.53
2023-11-30T05:36:15.158Z,24.35
2023-11-30T05:38:38.424Z,30.38
2023-11-30T05:41:01.280Z,28.30
2023-11-30T05:43:24.034Z,26.58
2023-11-30T05:45:46.743Z,32.33
2023-11-30T05:48:11.704Z,35.25
2023-11-30T05:50:36.162Z,33.92
2023-11-30T05:52:59.015Z,28.70
2023-11-30T05:55:22.158Z,26.80
2023-11-30T05:57:44.961Z,30.00
2023-11-30T06:00:28.255Z,25.60
2023-11-30T06:02:51.880Z,23.52
2023-11-30T06:05:14.850Z,21.40
2023-11-30T06:07:37.811Z,25.02
2023-11-30T06:10:00.917Z,24.27
2023-11-30T06:12:23.882Z,22.75
2023-11-30T06:14:46.732Z,23.17
2023-11-30T06:17:09.497Z,24.67
2023-11-30T06:19:32.555Z,24.65
2023-11-30T06:21:55.372Z,22.90
2023-11-30T06:24:18.557Z,22.48
2023-11-30T06:26:43.078Z,23.60
2023-11-30T06:29:05.798Z,25.60
2023-11-30T06:31:28.582Z,21.05
2023-11-30T06:33:51.567Z,23.77
2023-11-30T06:36:15.179Z,25.40
2023-11-30T06:38:38.222Z,25.30
2023-11-30T06:41:01.546Z,24.67
2023-11-30T06:43:24.307Z,23.95
2023-11-30T06:45:47.169Z,24.47
2023-11-30T06:48:11.673Z,22.15
2023-11-30T06:50:35.123Z,22.70
2023-11-30T06:52:57.904Z,22.80
2023-11-30T06:55:20.885Z,24.02
2023-11-30T06:57:44.344Z,23.50
2023-11-30T07:00:13.798Z,21.83
2023-11-30T07:02:41.157Z,25.35
2023-11-30T07:05:06.804Z,26.13
2023-11-30T07:07:34.240Z,22.50
2023-11-30T07:10:00.960Z,24.87
2023-11-30T07:12:24.744Z,24.33
2023-11-30T07:14:51.119Z,25.15
2023-11-30T07:17:14.870Z,26.77
2023-11-30T07:19:40.645Z,28.25
2023-11-30T07:22:03.500Z,26.80
2023-11-30T07:24:26.173Z,27.45
2023-11-30T07:26:51.790Z,26.58
2023-11-30T07:29:15.595Z,27.10
2023-11-30T07:31:38.449Z,26.65
2023-11-30T07:34:01.261Z,27.20
2023-11-30T07:36:24.254Z,30.63
2023-11-30T07:38:47.108Z,28.42
2023-11-30T07:41:10.499Z,28.25
2023-11-30T07:43:33.513Z,29.42
2023-11-30T07:45:56.674Z,33.80
2023-11-30T07:48:24.952Z,30.23
2023-11-30T07:50:47.651Z,33.20
2023-11-30T07:53:10.959Z,32.17
2023-11-30T07:55:34.508Z,32.63
2023-11-30T07:57:57.352Z,33.93
2023-11-30T08:00:21.121Z,35.30
2023-11-30T08:02:44.571Z,34.25
2023-11-30T08:05:07.623Z,37.30
2023-11-30T08:07:31.888Z,34.97
2023-11-30T08:09:54.772Z,37.50
2023-11-30T08:12:18.561Z,42.65
2023-11-30T08:14:41.763Z,39.17
2023-11-30T08:17:06.350Z,45.10
2023-11-30T08:19:29.154Z,44.40
2023-11-30T08:21:53.585Z,38.97
2023-11-30T08:24:16.796Z,44.65
2023-11-30T08:26:39.908Z,42.33
2023-11-30T08:29:02.715Z,43.88
2023-11-30T08:31:25.725Z,41.95
2023-11-30T08:33:48.722Z,43.50
2023-11-30T08:36:13.193Z,40.75
2023-11-30T08:38:39.544Z,41.17
2023-11-30T08:41:02.593Z,42.17
2023-11-30T08:43:25.519Z,44.28
2023-11-30T08:45:48.478Z,44.40
2023-11-30T08:48:16.211Z,46.38
2023-11-30T08:50:42.225Z,42.38
2023-11-30T08:53:05.352Z,42.45
2023-11-30T08:55:28.070Z,44.70
2023-11-30T08:57:52.155Z,39.83
2023-11-30T09:00:20.204Z,42.42
2023-11-30T09:02:44.099Z,38.83
2023-11-30T09:05:09.063Z,40.30
2023-11-30T09:07:32.225Z,39.55
2023-11-30T09:09:55.140Z,45.33
2023-11-30T09:12:18.301Z,42.90
2023-11-30T09:14:41.434Z,40.15
2023-11-30T09:17:06.365Z,42.42
2023-11-30T09:19:29.979Z,42.83
2023-11-30T09:21:53.513Z,42.63
2023-11-30T09:24:19.155Z,41.90
2023-11-30T09:26:45.354Z,47.10
2023-11-30T09:29:09.099Z,44.38
2023-11-30T09:31:33.388Z,40.80
2023-11-30T09:33:56.657Z,43.33
2023-11-30T09:36:20.385Z,40.50
2023-11-30T09:38:43.519Z,41.35
2023-11-30T09:41:11.609Z,41.70
2023-11-30T09:43:35.175Z,37.30
2023-11-30T09:45:57.938Z,39.67
2023-11-30T09:48:24.604Z,41.97
2023-11-30T09:50:49.246Z,41.88
2023-11-30T09:53:13.574Z,39.72
2023-11-30T09:55:36.598Z,39.08
2023-11-30T09:58:00.268Z,36.40
2023-11-30T10:00:23.501Z,40.97
2023-11-30T10:02:58.727Z,43.88
2023-11-30T10:05:43.186Z,48.35
2023-11-30T10:08:06.382Z,42.80
2023-11-30T10:10:29.094Z,44.67
2023-11-30T10:12:54.421Z,39.92
2023-11-30T10:15:17.623Z,38.78
2023-11-30T10:17:40.471Z,40.42
2023-11-30T10:20:07.468Z,46.08
2023-11-30T10:22:32.588Z,44.33
2023-11-30T10:24:56.198Z,48.35
2023-11-30T10:27:24.291Z,41.55
2023-11-30T10:29:49.397Z,48.83
2023-11-30T10:32:14.610Z,45.92
2023-11-30T10:34:47.607Z,44.83
2023-11-30T10:37:10.961Z,48.33
2023-11-30T10:39:37.847Z,45.78
2023-11-30T10:42:13.188Z,42.63
2023-11-30T10:44:39.492Z,43.03
2023-11-30T10:47:02.640Z,46.27
2023-11-30T10:49:27.315Z,47.45
2023-11-30T10:51:52.227Z,48.83
2023-11-30T10:54:26.726Z,54.15
2023-11-30T10:56:49.802Z,48.53
2023-11-30T10:59:14.177Z,54.80
2023-11-30T11:01:37.637Z,50.63
2023-11-30T11:04:00.796Z,46.88
2023-11-30T11:06:28.138Z,47.97
2023-11-30T11:09:01.269Z,48.10
2023-11-30T11:11:30.194Z,47.37
2023-11-30T11:13:53.048Z,46.92
2023-11-30T11:16:15.919Z,53.10
2023-11-30T11:18:43.540Z,53.50
2023-11-30T11:21:07.129Z,49.63
2023-11-30T11:23:40.804Z,48.83
2023-11-30T11:26:06.687Z,47.70
2023-11-30T11:28:29.920Z,48.63
2023-11-30T11:30:52.943Z,49.50
2023-11-30T11:33:22.506Z,48.70
2023-11-30T11:35:46.712Z,55.27
2023-11-30T11:38:09.636Z,47.30
2023-11-30T11:40:32.478Z,53.25
2023-11-30T11:42:55.853Z,54.28
2023-11-30T11:45:19.426Z,51.17
2023-11-30T11:47:42.411Z,52.03
2023-11-30T11:50:06.764Z,58.47
2023-11-30T11:52:32.118Z,52.88
2023-11-30T11:55:09.898Z,54.92
2023-11-30T11:57:37.524Z,49.92
2023-11-30T12:00:03.470Z,55.13
2023-11-30T12:02:29.829Z,51.75
2023-11-30T12:04:53.752Z,52.53
2023-11-30T12:07:19.167Z,50.60
2023-11-30T12:09:54.747Z,50.88
2023-11-30T12:12:17.886Z,58.17
2023-11-30T12:14:40.934Z,53.03
2023-11-30T12:17:03.875Z,54.33
2023-11-30T12:19:26.563Z,50.33
2023-11-30T12:21:49.627Z,56.22
2023-11-30T12:24:33.094Z,60.67
2023-11-30T12:26:57.461Z,54.58
2023-11-30T12:29:20.548Z,54.85
2023-11-30T12:31:43.380Z,52.45
2023-11-30T12:34:07.715Z,54.92
2023-11-30T12:36:31.115Z,52.03
2023-11-30T12:38:53.944Z,54.85
2023-11-30T12:41:16.868Z,55.10
2023-11-30T12:43:39.847Z,62.75
2023-11-30T12:46:02.804Z,59.17
2023-11-30T12:48:26.366Z,58.63
2023-11-30T12:50:50.006Z,58.40
2023-11-30T12:53:15.649Z,55.55
2023-11-30T12:55:38.650Z,53.55
2023-11-30T12:58:01.473Z,56.33
2023-11-30T13:00:24.909Z,54.33
2023-11-30T13:02:49.038Z,54.35
2023-11-30T13:05:15.531Z,54.08
2023-11-30T13:07:40.913Z,51.97
2023-11-30T13:10:05.037Z,55.58
2023-11-30T13:12:28.083Z,54.70
2023-11-30T13:14:51.002Z,53.85
2023-11-30T13:17:14.598Z,57.08
2023-11-30T13:19:37.454Z,50.10
2023-11-30T13:22:01.008Z,59.63
2023-11-30T13:24:24.636Z,56.57
2023-11-30T13:26:49.245Z,56.92
2023-11-30T13:29:12.248Z,56.25
2023-11-30T13:31:35.131Z,54.50
2023-11-30T13:33:57.993Z,53.17
2023-11-30T13:36:21.518Z,54.57
2023-11-30T13:38:45.387Z,49.22
2023-11-30T13:41:08.411Z,56.63
2023-11-30T13:43:31.293Z,61.58
2023-11-30T13:45:54.376Z,58.55
2023-11-30T13:48:19.190Z,53.53
2023-11-30T13:50:52.513Z,53.50
2023-11-30T13:53:19.177Z,52.88
2023-11-30T13:55:42.024Z,57.97
2023-11-30T13:58:04.899Z,57.33
2023-11-30T14:00:28.123Z,55.67
2023-11-30T14:02:51.084Z,56.42
2023-11-30T14:05:13.892Z,54.85
2023-11-30T14:07:36.893Z,52.25
2023-11-30T14:10:02.911Z,51.97
2023-11-30T14:12:28.655Z,52.97
2023-11-30T14:14:51.420Z,50.78
2023-11-30T14:17:14.769Z,52.58
2023-11-30T14:19:37.571Z,53.40
2023-11-30T14:22:01.049Z,55.17
2023-11-30T14:24:24.154Z,50.90
2023-11-30T14:26:47.544Z,50.65
2023-11-30T14:29:10.422Z,56.28
2023-11-30T14:31:33.635Z,60.08
2023-11-30T14:33:56.740Z,52.08
2023-11-30T14:36:20.322Z,51.70
2023-11-30T14:38:44.857Z,47.97
2023-11-30T14:41:08.210Z,51.47
2023-11-30T14:43:31.102Z,48.78
2023-11-30T14:45:53.960Z,51.08
2023-11-30T14:48:18.479Z,50.57
2023-11-30T14:50:42.689Z,52.65
2023-11-30T14:53:06.092Z,47.17
2023-11-30T14:55:28.762Z,47.22
2023-11-30T14:57:51.509Z,47.65
2023-11-30T15:00:22.173Z,45.60
2023-11-30T15:02:45.439Z,43.58
2023-11-30T15:05:10.882Z,48.92
2023-11-30T15:07:33.975Z,47.85
2023-11-30T15:09:57.131Z,42.58
2023-11-30T15:12:20.664Z,46.27
2023-11-30T15:14:43.550Z,45.47
2023-11-30T15:17:06.554Z,44.63
2023-11-30T15:19:29.413Z,46.20
2023-11-30T15:21:52.252Z,42.15
2023-11-30T15:24:18.798Z,45.13
2023-11-30T15:26:41.939Z,43.80
2023-11-30T15:29:05.221Z,39.25
2023-11-30T15:31:28.262Z,40.55
2023-11-30T15:33:51.502Z,43.28
2023-11-30T15:36:19.743Z,45.17
2023-11-30T15:38:43.056Z,46.63
2023-11-30T15:41:05.926Z,43.65
2023-11-30T15:43:28.588Z,42.70
2023-11-30T15:45:51.440Z,42.03
2023-11-30T15:48:18.588Z,40.93
2023-11-30T15:50:41.586Z,39.90
2023-11-30T15:53:04.341Z,40.88
2023-11-30T15:55:27.493Z,41.38
2023-11-30T15:57:50.269Z,43.17
2023-11-30T16:00:14.781Z,35.80
2023-11-30T16:02:42.779Z,39.95
2023-11-30T16:05:06.271Z,42.20
2023-11-30T16:07:29.036Z,41.50
2023-11-30T16:09:51.826Z,41.05
2023-11-30T16:12:18.490Z,35.90
2023-11-30T16:14:41.707Z,38.25
2023-11-30T16:17:04.547Z,36.67
2023-11-30T16:19:27.197Z,38.67
2023-11-30T16:21:53.506Z,37.13
2023-11-30T16:24:18.115Z,34.50
2023-11-30T16:26:41.270Z,34.95
2023-11-30T16:29:04.120Z,33.08
2023-11-30T16:31:26.875Z,35.85
2023-11-30T16:33:52.556Z,36.75
2023-11-30T16:36:19.522Z,34.97
2023-11-30T16:38:42.798Z,34.45
2023-11-30T16:41:05.936Z,37.35
2023-11-30T16:43:28.978Z,32.20
2023-11-30T16:45:51.770Z,33.80
2023-11-30T16:48:16.899Z,33.13
2023-11-30T16:50:42.924Z,36.83
2023-11-30T16:53:05.864Z,30.48
2023-11-30T16:55:28.555Z,32.80
2023-11-30T16:57:51.263Z,36.60
2023-11-30T17:00:17.153Z,35.70
2023-11-30T17:02:40.476Z,32.25
2023-11-30T17:05:03.348Z,33.22
2023-11-30T17:07:26.337Z,36.15
2023-11-30T17:09:49.837Z,37.03
2023-11-30T17:12:14.734Z,32.40
2023-11-30T17:14:39.503Z,29.83
2023-11-30T17:17:02.214Z,34.03
2023-11-30T17:19:25.038Z,29.10
2023-11-30T17:21:50.233Z,29.88
2023-11-30T17:24:15.093Z,36.10
2023-11-30T17:26:39.447Z,31.00
2023-11-30T17:29:02.186Z,32.03
2023-11-30T17:31:24.859Z,34.67
2023-11-30T17:33:48.234Z,32.65
2023-11-30T17:36:17.247Z,31.20
2023-11-30T17:38:40.813Z,34.13
2023-11-30T17:41:03.825Z,30.05
2023-11-30T17:43:26.621Z,33.08
2023-11-30T17:45:49.301Z,31.75
2023-11-30T17:48:17.691Z,32.43
2023-11-30T17:50:41.056Z,30.77
2023-11-30T17:53:04.260Z,33.60
2023-11-30T17:55:27.253Z,33.95
2023-11-30T17:57:50.057Z,34.30
2023-11-30T18:00:15.911Z,28.43
2023-11-30T18:02:43.605Z,31.45
2023-11-30T18:05:06.577Z,33.38
2023-11-30T18:07:29.171Z,33.53
2023-11-30T18:09:52.031Z,34.55
2023-11-30T18:12:17.369Z,34.70
2023-11-30T18:14:42.632Z,30.08
2023-11-30T18:17:06.072Z,28.67
2023-11-30T18:19:29.750Z,24.10
2023-11-30T18:21:52.492Z,30.23
2023-11-30T18:24:16.919Z,27.27
2023-11-30T18:26:40.193Z,31.88
2023-11-30T18:29:03.231Z,29.33
2023-11-30T18:31:25.958Z,28.67
2023-11-30T18:33:49.699Z,27.45
2023-11-30T18:36:15.051Z,29.47
2023-11-30T18:38:44.156Z,27.48
2023-11-30T18:41:13.722Z,23.08
2023-11-30T18:43:36.417Z,23.20
2023-11-30T18:45:59.260Z,24.90
2023-11-30T18:48:23.264Z,23.30
2023-11-30T18:50:46.288Z,25.20
2023-11-30T18:53:09.395Z,25.48
2023-11-30T18:55:32.073Z,24.05
2023-11-30T18:57:55.498Z,25.35
2023-11-30T19:00:19.808Z,23.80
2023-11-30T19:02:42.840Z,24.65
2023-11-30T19:05:08.676Z,26.10
2023-11-30T19:07:33.796Z,25.30
2023-11-30T19:09:57.339Z,24.58
2023-11-30T19:12:20.649Z,25.73
2023-11-30T19:14:43.804Z,27.20
2023-11-30T19:17:06.709Z,28.23
2023-11-30T19:19:29.667Z,30.70
2023-11-30T19:21:52.458Z,34.22
2023-11-30T19:24:18.243Z,32.47
2023-11-30T19:26:41.268Z,34.70
2023-11-30T19:29:04.987Z,37.28
2023-11-30T19:31:27.714Z,35.40
2023-11-30T19:33:50.638Z,33.22
2023-11-30T19:36:18.343Z,30.80
2023-11-30T19:38:41.445Z,26.67
2023-11-30T19:41:04.285Z,28.90
2023-11-30T19:43:27.480Z,26.10
2023-11-30T19:45:50.529Z,26.17
2023-11-30T19:48:14.724Z,26.67
2023-11-30T19:50:38.378Z,23.90
2023-11-30T19:53:01.229Z,22.30
2023-11-30T19:55:24.310Z,24.75
2023-11-30T19:57:47.050Z,20.10
2023-11-30T20:00:10.522Z,21.07
2023-11-30T20:02:37.389Z,20.13
2023-11-30T20:05:00.349Z,20.70
2023-11-30T20:07:23.799Z,18.63
2023-11-30T20:09:46.529Z,21.15
2023-11-30T20:12:13.630Z,20.30
2023-11-30T20:14:42.140Z,20.13
2023-11-30T20:17:05.057Z,20.92
2023-11-30T20:19:27.841Z,18.65
2023-11-30T20:21:50.587Z,19.00
2023-11-30T20:24:13.687Z,19.00
2023-11-30T20:26:40.447Z,21.98
2023-11-30T20:29:03.112Z,22.25
2023-11-30T20:31:25.961Z,20.42
2023-11-30T20:33:51.350Z,25.65
2023-11-30T20:36:18.411Z,22.17
2023-11-30T20:38:41.450Z,24.10
2023-11-30T20:41:04.341Z,20.90
2023-11-30T20:43:27.133Z,21.90
2023-11-30T20:45:49.966Z,18.67
2023-11-30T20:48:14.586Z,19.30
2023-11-30T20:50:39.938Z,18.38
2023-11-30T20:53:02.536Z,18.20
2023-11-30T20:55:25.260Z,18.25
2023-11-30T20:57:48.391Z,18.00
2023-11-30T21:00:20.625Z,20.33
2023-11-30T21:02:43.653Z,18.40
2023-11-30T21:05:06.956Z,20.30
2023-11-30T21:07:29.705Z,19.40
2023-11-30T21:09:52.433Z,18.67
2023-11-30T21:12:16.892Z,17.50
2023-11-30T21:14:39.908Z,18.40
2023-11-30T21:17:02.763Z,19.02
2023-11-30T21:19:26.585Z,18.42
2023-11-30T21:21:49.485Z,18.08
2023-11-30T21:24:15.431Z,16.70
2023-11-30T21:26:39.508Z,16.88
2023-11-30T21:29:02.149Z,16.80
2023-11-30T21:31:24.965Z,18.63
2023-11-30T21:33:47.688Z,17.13
2023-11-30T21:36:17.318Z,17.53
2023-11-30T21:38:40.343Z,18.17
2023-11-30T21:41:03.084Z,18.60
2023-11-30T21:43:26.726Z,18.63
2023-11-30T21:45:49.653Z,20.80
2023-11-30T21:48:19.473Z,17.23
2023-11-30T21:50:43.962Z,19.23
2023-11-30T21:53:06.681Z,17.52
2023-11-30T21:55:29.427Z,18.63
2023-11-30T21:57:52.068Z,19.52
2023-11-30T22:00:18.974Z,18.50
2023-11-30T22:02:47.422Z,18.35
2023-11-30T22:05:11.234Z,16.58
2023-11-30T22:07:35.143Z,18.65
2023-11-30T22:09:58.696Z,19.80
2023-11-30T22:12:21.858Z,19.23
2023-11-30T22:14:44.902Z,18.35
2023-11-30T22:17:08.091Z,18.52
2023-11-30T22:19:31.226Z,20.60
2023-11-30T22:21:54.092Z,19.08
2023-11-30T22:24:18.674Z,18.20
2023-11-30T22:26:42.374Z,19.10
2023-11-30T22:29:05.208Z,17.08
2023-11-30T22:31:28.930Z,15.88
2023-11-30T22:33:51.678Z,16.23
2023-11-30T22:36:18.976Z,16.13
2023-11-30T22:38:46.180Z,14.30
2023-11-30T22:41:11.989Z,14.88
2023-11-30T22:43:34.715Z,15.55
2023-11-30T22:45:57.514Z,13.68
2023-11-30T22:48:20.744Z,12.80
2023-11-30T22:50:43.851Z,13.07
2023-11-30T22:53:06.676Z,16.02
2023-11-30T22:55:29.539Z,13.20
2023-11-30T22:57:52.453Z,14.05
2023-11-30T23:00:21.965Z,12.30
2023-11-30T23:02:45.473Z,10.88
2023-11-30T23:05:10.571Z,12.98
2023-11-30T23:07:33.431Z,11.23
2023-11-30T23:09:56.175Z,11.77
2023-11-30T23:12:19.449Z,11.23
2023-11-30T23:14:42.645Z,10.98
2023-11-30T23:17:05.638Z,10.50
2023-11-30T23:19:30.902Z,10.85
2023-11-30T23:21:54.465Z,10.68
2023-11-30T23:24:25.861Z,10.93
2023-11-30T23:26:52.024Z,11.32
2023-11-30T23:29:14.779Z,11.65
2023-11-30T23:31:37.678Z,11.35
2023-11-30T23:34:00.543Z,11.88
2023-11-30T23:36:24.122Z,12.67
2023-11-30T23:38:47.129Z,11.13
2023-11-30T23:41:10.118Z,11.60
2023-11-30T23:43:32.989Z,11.98
2023-11-30T23:45:55.816Z,12.15
2023-11-30T23:48:19.108Z,14.00
2023-11-30T23:50:42.179Z,11.20
2023-11-30T23:53:04.832Z,11.25
2023-11-30T23:55:27.634Z,12.07
2023-11-30T23:57:50.385Z,13.15
